EGDX - St Athan Royal AFB
Distance from station: E 5mi, 14km
Updated: 10/20/2017 5:50pm
Mostly Cloudy
Mostly Cloudy
 Wind from S
Wind: S 10 mph , 17 km/h
Temperature: 57°F , 14°C
Dew Point: 52°F , 11°C
Humidity: 82%
Barometer: 29.47 inHg , 998 hPa
Clouds: Mostly Cloudy
Visibility: 6 miles , 10 km
Cloud details: Few Clouds 2200 ft
Mostly Cloudy 11000 ft
2017/10/21 00:50 EGDX 210050Z AUTO 19009KT 9999 FEW022/// BKN110/// 14/11 Q0998